sensor_id;sensor_type;location;lat;lon;timestamp;P1;durP1;ratioP1;P2;durP2;ratioP2
4112;SDS011;2070;51.042;7.056;2023-03-15T00:00:12;7.30;;;2.97;;
4112;SDS011;2070;51.042;7.056;2023-03-15T00:02:37;12.37;;;2.10;;
4112;SDS011;2070;51.042;7.056;2023-03-15T00:05:03;17.83;;;2.30;;
4112;SDS011;2070;51.042;7.056;2023-03-15T00:07:29;8.43;;;2.00;;
4112;SDS011;2070;51.042;7.056;2023-03-15T00:09:54;22.33;;;2.60;;
4112;SDS011;2070;51.042;7.056;2023-03-15T00:12:19;12.80;;;3.00;;
4112;SDS011;2070;51.042;7.056;2023-03-15T00:14:47;13.70;;;2.83;;
4112;SDS011;2070;51.042;7.056;2023-03-15T00:17:12;8.33;;;2.63;;
4112;SDS011;2070;51.042;7.056;2023-03-15T00:19:37;18.27;;;3.17;;
4112;SDS011;2070;51.042;7.056;2023-03-15T00:22:02;9.93;;;2.20;;
4112;SDS011;2070;51.042;7.056;2023-03-15T00:24:27;12.93;;;2.97;;
4112;SDS011;2070;51.042;7.056;2023-03-15T00:26:53;5.27;;;2.73;;
4112;SDS011;2070;51.042;7.056;2023-03-15T00:29:18;18.30;;;4.47;;
4112;SDS011;2070;51.042;7.056;2023-03-15T00:31:43;13.43;;;4.03;;
4112;SDS011;2070;51.042;7.056;2023-03-15T00:34:08;17.53;;;3.63;;
4112;SDS011;2070;51.042;7.056;2023-03-15T00:36:33;7.03;;;3.30;;
4112;SDS011;2070;51.042;7.056;2023-03-15T00:38:59;15.20;;;3.30;;
4112;SDS011;2070;51.042;7.056;2023-03-15T00:41:24;9.80;;;2.93;;
4112;SDS011;2070;51.042;7.056;2023-03-15T00:43:50;11.13;;;3.30;;
4112;SDS011;2070;51.042;7.056;2023-03-15T00:46:16;9.77;;;3.87;;
4112;SDS011;2070;51.042;7.056;2023-03-15T00:48:42;8.03;;;2.40;;
4112;SDS011;2070;51.042;7.056;2023-03-15T00:51:14;15.93;;;3.83;;
4112;SDS011;2070;51.042;7.056;2023-03-15T00:53:40;14.03;;;3.60;;
4112;SDS011;2070;51.042;7.056;2023-03-15T00:56:10;16.20;;;4.47;;
4112;SDS011;2070;51.042;7.056;2023-03-15T00:58:35;13.97;;;4.07;;
4112;SDS011;2070;51.042;7.056;2023-03-15T01:01:07;8.20;;;4.03;;
4112;SDS011;2070;51.042;7.056;2023-03-15T01:03:33;18.13;;;3.23;;
4112;SDS011;2070;51.042;7.056;2023-03-15T01:05:58;12.73;;;4.03;;
4112;SDS011;2070;51.042;7.056;2023-03-15T01:08:25;20.73;;;4.30;;
4112;SDS011;2070;51.042;7.056;2023-03-15T01:10:51;7.20;;;3.27;;
4112;SDS011;2070;51.042;7.056;2023-03-15T01:13:16;23.10;;;4.13;;
4112;SDS011;2070;51.042;7.056;2023-03-15T01:15:45;18.63;;;5.67;;
4112;SDS011;2070;51.042;7.056;2023-03-15T01:18:11;13.80;;;4.70;;
4112;SDS011;2070;51.042;7.056;2023-03-15T01:20:36;8.40;;;3.90;;
4112;SDS011;2070;51.042;7.056;2023-03-15T01:23:01;14.53;;;4.50;;
4112;SDS011;2070;51.042;7.056;2023-03-15T01:25:26;17.80;;;4.90;;
4112;SDS011;2070;51.042;7.056;2023-03-15T01:27:52;23.70;;;4.67;;
4112;SDS011;2070;51.042;7.056;2023-03-15T01:30:17;16.97;;;4.97;;
4112;SDS011;2070;51.042;7.056;2023-03-15T01:32:42;15.47;;;4.33;;
4112;SDS011;2070;51.042;7.056;2023-03-15T01:35:07;9.03;;;4.37;;
4112;SDS011;2070;51.042;7.056;2023-03-15T01:37:32;9.00;;;4.30;;
4112;SDS011;2070;51.042;7.056;2023-03-15T01:39:58;13.47;;;4.60;;
4112;SDS011;2070;51.042;7.056;2023-03-15T01:42:23;12.90;;;4.37;;
4112;SDS011;2070;51.042;7.056;2023-03-15T01:47:17;17.97;;;5.73;;
4112;SDS011;2070;51.042;7.056;2023-03-15T01:49:43;9.63;;;3.60;;
4112;SDS011;2070;51.042;7.056;2023-03-15T01:52:11;11.03;;;5.43;;
4112;SDS011;2070;51.042;7.056;2023-03-15T01:54:41;10.20;;;5.77;;
4112;SDS011;2070;51.042;7.056;2023-03-15T01:59:37;11.70;;;5.27;;
4112;SDS011;2070;51.042;7.056;2023-03-15T02:02:04;12.60;;;5.60;;
4112;SDS011;2070;51.042;7.056;2023-03-15T02:04:34;11.40;;;4.70;;
4112;SDS011;2070;51.042;7.056;2023-03-15T02:07:00;11.20;;;5.00;;
4112;SDS011;2070;51.042;7.056;2023-03-15T02:10:12;11.27;;;4.67;;
4112;SDS011;2070;51.042;7.056;2023-03-15T02:12:12;8.10;;;2.83;;
4112;SDS011;2070;51.042;7.056;2023-03-15T02:14:37;8.57;;;3.47;;
4112;SDS011;2070;51.042;7.056;2023-03-15T02:17:03;15.20;;;2.43;;
4112;SDS011;2070;51.042;7.056;2023-03-15T02:19:37;4.00;;;1.83;;
4112;SDS011;2070;51.042;7.056;2023-03-15T02:22:09;1.90;;;1.40;;
4112;SDS011;2070;51.042;7.056;2023-03-15T02:27:19;2.70;;;1.60;;
4112;SDS011;2070;51.042;7.056;2023-03-15T02:29:46;1.60;;;1.10;;
4112;SDS011;2070;51.042;7.056;2023-03-15T02:32:11;4.20;;;1.67;;
4112;SDS011;2070;51.042;7.056;2023-03-15T02:34:36;6.83;;;2.00;;
4112;SDS011;2070;51.042;7.056;2023-03-15T02:37:01;4.63;;;2.00;;
4112;SDS011;2070;51.042;7.056;2023-03-15T02:39:26;7.20;;;2.70;;
4112;SDS011;2070;51.042;7.056;2023-03-15T02:41:52;9.50;;;3.43;;
4112;SDS011;2070;51.042;7.056;2023-03-15T02:44:40;3.50;;;2.90;;
4112;SDS011;2070;51.042;7.056;2023-03-15T02:47:05;6.17;;;3.57;;
4112;SDS011;2070;51.042;7.056;2023-03-15T02:49:34;3.27;;;2.97;;
4112;SDS011;2070;51.042;7.056;2023-03-15T02:52:01;6.23;;;3.67;;
4112;SDS011;2070;51.042;7.056;2023-03-15T02:54:26;5.43;;;3.47;;
4112;SDS011;2070;51.042;7.056;2023-03-15T02:56:51;6.23;;;4.50;;
4112;SDS011;2070;51.042;7.056;2023-03-15T02:59:17;6.80;;;3.77;;
4112;SDS011;2070;51.042;7.056;2023-03-15T03:01:42;7.77;;;3.67;;
4112;SDS011;2070;51.042;7.056;2023-03-15T03:04:10;5.20;;;2.50;;
4112;SDS011;2070;51.042;7.056;2023-03-15T03:06:35;4.60;;;2.33;;
4112;SDS011;2070;51.042;7.056;2023-03-15T03:09:00;4.50;;;2.60;;
4112;SDS011;2070;51.042;7.056;2023-03-15T03:11:27;3.30;;;1.80;;
4112;SDS011;2070;51.042;7.056;2023-03-15T03:13:52;5.50;;;3.20;;
4112;SDS011;2070;51.042;7.056;2023-03-15T03:16:17;4.03;;;3.20;;
4112;SDS011;2070;51.042;7.056;2023-03-15T03:18:42;3.10;;;2.23;;
4112;SDS011;2070;51.042;7.056;2023-03-15T03:21:08;4.33;;;3.60;;
4112;SDS011;2070;51.042;7.056;2023-03-15T03:23:33;6.43;;;2.77;;
4112;SDS011;2070;51.042;7.056;2023-03-15T03:25:59;2.90;;;2.70;;
4112;SDS011;2070;51.042;7.056;2023-03-15T03:28:26;3.73;;;2.50;;
4112;SDS011;2070;51.042;7.056;2023-03-15T03:30:51;5.47;;;3.07;;
4112;SDS011;2070;51.042;7.056;2023-03-15T03:33:17;4.00;;;2.43;;
4112;SDS011;2070;51.042;7.056;2023-03-15T03:35:42;3.33;;;2.60;;
4112;SDS011;2070;51.042;7.056;2023-03-15T03:38:08;3.17;;;2.80;;
4112;SDS011;2070;51.042;7.056;2023-03-15T03:40:33;7.70;;;3.10;;
4112;SDS011;2070;51.042;7.056;2023-03-15T03:42:58;3.90;;;2.80;;
4112;SDS011;2070;51.042;7.056;2023-03-15T03:45:24;4.90;;;2.97;;
4112;SDS011;2070;51.042;7.056;2023-03-15T03:47:49;11.03;;;3.70;;
4112;SDS011;2070;51.042;7.056;2023-03-15T03:50:15;3.63;;;2.67;;
4112;SDS011;2070;51.042;7.056;2023-03-15T03:52:41;3.43;;;3.10;;
4112;SDS011;2070;51.042;7.056;2023-03-15T03:55:08;9.33;;;3.63;;
4112;SDS011;2070;51.042;7.056;2023-03-15T03:57:33;8.00;;;4.33;;
4112;SDS011;2070;51.042;7.056;2023-03-15T03:59:58;3.47;;;3.17;;
4112;SDS011;2070;51.042;7.056;2023-03-15T04:02:23;4.17;;;3.30;;
4112;SDS011;2070;51.042;7.056;2023-03-15T04:04:48;7.97;;;3.70;;
4112;SDS011;2070;51.042;7.056;2023-03-15T04:07:14;3.63;;;2.93;;
4112;SDS011;2070;51.042;7.056;2023-03-15T04:09:40;3.50;;;2.93;;
4112;SDS011;2070;51.042;7.056;2023-03-15T04:12:05;4.27;;;3.80;;
4112;SDS011;2070;51.042;7.056;2023-03-15T04:14:31;4.90;;;3.77;;
4112;SDS011;2070;51.042;7.056;2023-03-15T04:16:56;3.87;;;3.20;;
4112;SDS011;2070;51.042;7.056;2023-03-15T04:19:21;6.53;;;3.20;;
4112;SDS011;2070;51.042;7.056;2023-03-15T04:21:47;7.43;;;3.73;;
4112;SDS011;2070;51.042;7.056;2023-03-15T04:24:12;7.13;;;4.73;;
4112;SDS011;2070;51.042;7.056;2023-03-15T04:26:38;4.20;;;3.80;;
4112;SDS011;2070;51.042;7.056;2023-03-15T04:29:03;5.30;;;4.30;;
4112;SDS011;2070;51.042;7.056;2023-03-15T04:31:29;5.10;;;4.13;;
4112;SDS011;2070;51.042;7.056;2023-03-15T04:34:01;4.97;;;3.77;;
4112;SDS011;2070;51.042;7.056;2023-03-15T04:36:27;5.83;;;3.80;;
4112;SDS011;2070;51.042;7.056;2023-03-15T04:38:52;7.80;;;4.30;;
4112;SDS011;2070;51.042;7.056;2023-03-15T04:41:28;8.70;;;3.83;;
4112;SDS011;2070;51.042;7.056;2023-03-15T04:43:53;4.80;;;4.40;;
4112;SDS011;2070;51.042;7.056;2023-03-15T04:46:18;5.23;;;4.20;;
4112;SDS011;2070;51.042;7.056;2023-03-15T04:48:43;6.70;;;4.03;;
4112;SDS011;2070;51.042;7.056;2023-03-15T04:51:08;7.33;;;4.90;;
4112;SDS011;2070;51.042;7.056;2023-03-15T04:53:34;4.73;;;4.30;;
4112;SDS011;2070;51.042;7.056;2023-03-15T04:55:59;7.33;;;5.63;;
4112;SDS011;2070;51.042;7.056;2023-03-15T04:58:24;5.13;;;4.63;;
4112;SDS011;2070;51.042;7.056;2023-03-15T05:00:51;11.73;;;4.83;;
4112;SDS011;2070;51.042;7.056;2023-03-15T05:03:16;4.83;;;4.43;;
4112;SDS011;2070;51.042;7.056;2023-03-15T05:05:43;3.77;;;3.00;;
4112;SDS011;2070;51.042;7.056;2023-03-15T05:08:08;3.87;;;3.47;;
4112;SDS011;2070;51.042;7.056;2023-03-15T05:10:33;6.10;;;4.00;;
4112;SDS011;2070;51.042;7.056;2023-03-15T05:12:59;3.93;;;3.60;;
4112;SDS011;2070;51.042;7.056;2023-03-15T05:15:24;4.87;;;3.70;;
4112;SDS011;2070;51.042;7.056;2023-03-15T05:17:49;3.80;;;3.50;;
4112;SDS011;2070;51.042;7.056;2023-03-15T05:20:19;4.63;;;3.80;;
4112;SDS011;2070;51.042;7.056;2023-03-15T05:22:44;5.83;;;3.33;;
4112;SDS011;2070;51.042;7.056;2023-03-15T05:25:09;3.80;;;3.50;;
4112;SDS011;2070;51.042;7.056;2023-03-15T05:27:35;4.70;;;3.83;;
4112;SDS011;2070;51.042;7.056;2023-03-15T05:30:00;5.40;;;3.87;;
4112;SDS011;2070;51.042;7.056;2023-03-15T05:32:29;4.73;;;3.57;;
4112;SDS011;2070;51.042;7.056;2023-03-15T05:34:59;4.90;;;3.60;;
4112;SDS011;2070;51.042;7.056;2023-03-15T05:37:24;7.37;;;4.73;;
4112;SDS011;2070;51.042;7.056;2023-03-15T05:39:50;7.57;;;4.43;;
4112;SDS011;2070;51.042;7.056;2023-03-15T05:42:15;4.90;;;4.00;;
4112;SDS011;2070;51.042;7.056;2023-03-15T05:44:46;5.37;;;4.20;;
4112;SDS011;2070;51.042;7.056;2023-03-15T05:47:11;4.83;;;4.30;;
4112;SDS011;2070;51.042;7.056;2023-03-15T05:49:36;4.73;;;4.13;;
4112;SDS011;2070;51.042;7.056;2023-03-15T05:52:01;5.50;;;4.20;;
4112;SDS011;2070;51.042;7.056;2023-03-15T05:54:27;5.77;;;4.87;;
4112;SDS011;2070;51.042;7.056;2023-03-15T05:56:52;6.40;;;5.80;;
4112;SDS011;2070;51.042;7.056;2023-03-15T05:59:17;8.30;;;6.87;;
4112;SDS011;2070;51.042;7.056;2023-03-15T06:01:42;10.90;;;7.20;;
4112;SDS011;2070;51.042;7.056;2023-03-15T06:04:08;7.00;;;5.93;;
4112;SDS011;2070;51.042;7.056;2023-03-15T06:06:33;14.07;;;8.17;;
4112;SDS011;2070;51.042;7.056;2023-03-15T06:08:58;13.90;;;7.83;;
4112;SDS011;2070;51.042;7.056;2023-03-15T06:11:23;8.90;;;7.33;;
4112;SDS011;2070;51.042;7.056;2023-03-15T06:13:48;15.63;;;9.33;;
4112;SDS011;2070;51.042;7.056;2023-03-15T06:16:14;12.97;;;9.63;;
4112;SDS011;2070;51.042;7.056;2023-03-15T06:18:39;17.40;;;10.47;;
4112;SDS011;2070;51.042;7.056;2023-03-15T06:21:04;13.00;;;8.07;;
4112;SDS011;2070;51.042;7.056;2023-03-15T06:23:29;14.37;;;8.50;;
4112;SDS011;2070;51.042;7.056;2023-03-15T06:25:54;12.53;;;7.63;;
4112;SDS011;2070;51.042;7.056;2023-03-15T06:28:20;16.50;;;8.40;;
4112;SDS011;2070;51.042;7.056;2023-03-15T06:30:45;12.30;;;8.47;;
4112;SDS011;2070;51.042;7.056;2023-03-15T06:33:10;13.30;;;8.23;;
4112;SDS011;2070;51.042;7.056;2023-03-15T06:35:35;11.60;;;8.00;;
4112;SDS011;2070;51.042;7.056;2023-03-15T06:38:01;13.73;;;7.70;;
4112;SDS011;2070;51.042;7.056;2023-03-15T06:40:26;16.90;;;7.83;;
4112;SDS011;2070;51.042;7.056;2023-03-15T06:42:51;17.87;;;9.13;;
4112;SDS011;2070;51.042;7.056;2023-03-15T06:45:16;14.50;;;8.63;;
4112;SDS011;2070;51.042;7.056;2023-03-15T06:47:42;15.37;;;8.60;;
4112;SDS011;2070;51.042;7.056;2023-03-15T06:50:07;15.53;;;8.13;;
4112;SDS011;2070;51.042;7.056;2023-03-15T06:52:32;16.90;;;9.03;;
4112;SDS011;2070;51.042;7.056;2023-03-15T06:54:58;14.23;;;9.47;;
4112;SDS011;2070;51.042;7.056;2023-03-15T06:57:23;18.83;;;10.07;;
4112;SDS011;2070;51.042;7.056;2023-03-15T06:59:48;16.03;;;8.93;;
4112;SDS011;2070;51.042;7.056;2023-03-15T07:02:15;14.70;;;9.07;;
4112;SDS011;2070;51.042;7.056;2023-03-15T07:04:40;14.63;;;8.60;;
4112;SDS011;2070;51.042;7.056;2023-03-15T07:07:06;15.43;;;8.47;;
4112;SDS011;2070;51.042;7.056;2023-03-15T07:09:31;32.93;;;9.23;;
4112;SDS011;2070;51.042;7.056;2023-03-15T07:11:56;16.77;;;9.93;;
4112;SDS011;2070;51.042;7.056;2023-03-15T07:14:21;18.10;;;10.57;;
4112;SDS011;2070;51.042;7.056;2023-03-15T07:16:47;16.03;;;8.40;;
4112;SDS011;2070;51.042;7.056;2023-03-15T07:19:12;13.30;;;7.73;;
4112;SDS011;2070;51.042;7.056;2023-03-15T07:21:37;13.70;;;8.50;;
4112;SDS011;2070;51.042;7.056;2023-03-15T07:24:02;16.60;;;8.03;;
4112;SDS011;2070;51.042;7.056;2023-03-15T07:26:28;10.90;;;7.60;;
4112;SDS011;2070;51.042;7.056;2023-03-15T07:28:53;16.30;;;9.33;;
4112;SDS011;2070;51.042;7.056;2023-03-15T07:31:18;17.87;;;9.20;;
4112;SDS011;2070;51.042;7.056;2023-03-15T07:33:43;16.13;;;8.67;;
4112;SDS011;2070;51.042;7.056;2023-03-15T07:36:09;11.30;;;8.23;;
4112;SDS011;2070;51.042;7.056;2023-03-15T07:38:34;18.40;;;8.80;;
4112;SDS011;2070;51.042;7.056;2023-03-15T07:41:03;14.17;;;7.63;;
4112;SDS011;2070;51.042;7.056;2023-03-15T07:43:29;12.90;;;6.87;;
4112;SDS011;2070;51.042;7.056;2023-03-15T07:45:54;13.73;;;6.73;;
4112;SDS011;2070;51.042;7.056;2023-03-15T07:48:19;18.73;;;8.90;;
4112;SDS011;2070;51.042;7.056;2023-03-15T07:50:44;15.97;;;8.23;;
4112;SDS011;2070;51.042;7.056;2023-03-15T07:53:10;17.13;;;10.17;;
4112;SDS011;2070;51.042;7.056;2023-03-15T07:55:35;16.73;;;8.00;;
4112;SDS011;2070;51.042;7.056;2023-03-15T07:58:00;17.30;;;8.47;;
4112;SDS011;2070;51.042;7.056;2023-03-15T08:00:26;18.20;;;9.60;;
4112;SDS011;2070;51.042;7.056;2023-03-15T08:02:51;43.10;;;20.60;;
4112;SDS011;2070;51.042;7.056;2023-03-15T08:05:16;34.93;;;13.20;;
4112;SDS011;2070;51.042;7.056;2023-03-15T08:07:43;14.00;;;9.40;;
4112;SDS011;2070;51.042;7.056;2023-03-15T08:10:09;15.07;;;9.00;;
4112;SDS011;2070;51.042;7.056;2023-03-15T08:12:34;17.63;;;9.93;;
4112;SDS011;2070;51.042;7.056;2023-03-15T08:14:59;17.00;;;10.10;;
4112;SDS011;2070;51.042;7.056;2023-03-15T08:17:24;19.70;;;10.37;;
4112;SDS011;2070;51.042;7.056;2023-03-15T08:19:49;19.10;;;11.60;;
4112;SDS011;2070;51.042;7.056;2023-03-15T08:22:15;21.03;;;10.93;;
4112;SDS011;2070;51.042;7.056;2023-03-15T08:24:40;25.23;;;12.30;;
4112;SDS011;2070;51.042;7.056;2023-03-15T08:27:06;18.70;;;12.13;;
4112;SDS011;2070;51.042;7.056;2023-03-15T08:29:31;18.87;;;10.23;;
4112;SDS011;2070;51.042;7.056;2023-03-15T08:31:56;19.00;;;10.77;;
4112;SDS011;2070;51.042;7.056;2023-03-15T08:34:22;18.17;;;11.30;;
4112;SDS011;2070;51.042;7.056;2023-03-15T08:36:47;16.07;;;9.97;;
4112;SDS011;2070;51.042;7.056;2023-03-15T08:39:12;26.10;;;12.63;;
4112;SDS011;2070;51.042;7.056;2023-03-15T08:41:38;19.27;;;10.67;;
4112;SDS011;2070;51.042;7.056;2023-03-15T08:44:03;15.30;;;10.30;;
4112;SDS011;2070;51.042;7.056;2023-03-15T08:46:28;22.00;;;10.20;;
4112;SDS011;2070;51.042;7.056;2023-03-15T08:48:54;26.43;;;10.30;;
4112;SDS011;2070;51.042;7.056;2023-03-15T08:51:19;24.73;;;9.73;;
4112;SDS011;2070;51.042;7.056;2023-03-15T08:53:45;15.50;;;8.90;;
4112;SDS011;2070;51.042;7.056;2023-03-15T08:56:10;15.80;;;8.80;;
4112;SDS011;2070;51.042;7.056;2023-03-15T08:58:36;14.63;;;9.70;;
4112;SDS011;2070;51.042;7.056;2023-03-15T09:01:01;17.50;;;10.13;;
4112;SDS011;2070;51.042;7.056;2023-03-15T09:03:26;22.70;;;10.60;;
4112;SDS011;2070;51.042;7.056;2023-03-15T09:05:55;15.47;;;9.17;;
4112;SDS011;2070;51.042;7.056;2023-03-15T09:08:21;13.97;;;9.10;;
4112;SDS011;2070;51.042;7.056;2023-03-15T09:10:52;9.53;;;8.13;;
4112;SDS011;2070;51.042;7.056;2023-03-15T09:13:17;19.57;;;7.20;;
4112;SDS011;2070;51.042;7.056;2023-03-15T09:15:42;7.70;;;5.57;;
4112;SDS011;2070;51.042;7.056;2023-03-15T09:18:07;10.33;;;5.60;;
4112;SDS011;2070;51.042;7.056;2023-03-15T09:20:33;11.53;;;4.57;;
4112;SDS011;2070;51.042;7.056;2023-03-15T09:22:58;5.07;;;4.33;;
4112;SDS011;2070;51.042;7.056;2023-03-15T09:25:24;13.03;;;4.40;;
4112;SDS011;2070;51.042;7.056;2023-03-15T09:27:49;6.10;;;4.53;;
4112;SDS011;2070;51.042;7.056;2023-03-15T09:30:14;6.47;;;4.90;;
4112;SDS011;2070;51.042;7.056;2023-03-15T09:32:40;8.43;;;4.77;;
4112;SDS011;2070;51.042;7.056;2023-03-15T09:35:07;8.37;;;4.80;;
4112;SDS011;2070;51.042;7.056;2023-03-15T09:37:34;7.83;;;5.67;;
4112;SDS011;2070;51.042;7.056;2023-03-15T09:39:59;4.73;;;4.00;;
4112;SDS011;2070;51.042;7.056;2023-03-15T09:42:29;8.30;;;4.37;;
4112;SDS011;2070;51.042;7.056;2023-03-15T09:45:22;6.43;;;3.03;;
4112;SDS011;2070;51.042;7.056;2023-03-15T09:47:54;5.73;;;4.93;;
4112;SDS011;2070;51.042;7.056;2023-03-15T09:50:31;7.53;;;5.07;;
4112;SDS011;2070;51.042;7.056;2023-03-15T09:53:09;11.57;;;4.00;;
4112;SDS011;2070;51.042;7.056;2023-03-15T09:55:36;6.17;;;3.60;;
4112;SDS011;2070;51.042;7.056;2023-03-15T09:58:02;4.73;;;3.60;;
4112;SDS011;2070;51.042;7.056;2023-03-15T10:03:11;7.10;;;4.03;;
4112;SDS011;2070;51.042;7.056;2023-03-15T10:05:40;6.90;;;4.00;;
4112;SDS011;2070;51.042;7.056;2023-03-15T10:08:12;9.73;;;3.50;;
4112;SDS011;2070;51.042;7.056;2023-03-15T10:11:03;7.77;;;3.73;;
4112;SDS011;2070;51.042;7.056;2023-03-15T10:16:04;4.53;;;4.10;;
4112;SDS011;2070;51.042;7.056;2023-03-15T10:21:33;8.97;;;4.27;;
4112;SDS011;2070;51.042;7.056;2023-03-15T10:24:00;5.30;;;3.30;;
4112;SDS011;2070;51.042;7.056;2023-03-15T10:26:27;8.07;;;3.77;;
4112;SDS011;2070;51.042;7.056;2023-03-15T10:28:56;4.27;;;3.87;;
4112;SDS011;2070;51.042;7.056;2023-03-15T10:31:24;10.50;;;4.00;;
4112;SDS011;2070;51.042;7.056;2023-03-15T10:33:50;7.47;;;3.80;;
4112;SDS011;2070;51.042;7.056;2023-03-15T10:36:16;7.37;;;3.13;;
4112;SDS011;2070;51.042;7.056;2023-03-15T10:38:43;5.17;;;4.10;;
4112;SDS011;2070;51.042;7.056;2023-03-15T10:41:10;5.87;;;3.73;;
4112;SDS011;2070;51.042;7.056;2023-03-15T10:43:35;5.97;;;2.77;;
4112;SDS011;2070;51.042;7.056;2023-03-15T10:46:10;8.00;;;3.73;;
4112;SDS011;2070;51.042;7.056;2023-03-15T10:48:39;8.50;;;3.50;;
4112;SDS011;2070;51.042;7.056;2023-03-15T10:51:19;8.37;;;4.83;;
4112;SDS011;2070;51.042;7.056;2023-03-15T10:53:51;7.00;;;3.70;;
4112;SDS011;2070;51.042;7.056;2023-03-15T10:56:20;8.67;;;3.47;;
4112;SDS011;2070;51.042;7.056;2023-03-15T10:58:46;6.40;;;2.50;;
4112;SDS011;2070;51.042;7.056;2023-03-15T11:01:13;3.07;;;2.83;;
4112;SDS011;2070;51.042;7.056;2023-03-15T11:03:47;7.73;;;2.57;;
4112;SDS011;2070;51.042;7.056;2023-03-15T11:06:25;5.60;;;2.10;;
4112;SDS011;2070;51.042;7.056;2023-03-15T11:08:50;6.87;;;2.43;;
4112;SDS011;2070;51.042;7.056;2023-03-15T11:11:15;5.73;;;2.77;;
4112;SDS011;2070;51.042;7.056;2023-03-15T11:13:40;4.03;;;2.60;;
4112;SDS011;2070;51.042;7.056;2023-03-15T11:21:22;3.73;;;2.40;;
4112;SDS011;2070;51.042;7.056;2023-03-15T11:23:48;3.70;;;2.30;;
4112;SDS011;2070;51.042;7.056;2023-03-15T11:26:24;3.80;;;1.90;;
4112;SDS011;2070;51.042;7.056;2023-03-15T11:28:54;12.30;;;3.07;;
4112;SDS011;2070;51.042;7.056;2023-03-15T11:31:21;6.43;;;2.07;;
4112;SDS011;2070;51.042;7.056;2023-03-15T11:33:52;4.93;;;2.27;;
4112;SDS011;2070;51.042;7.056;2023-03-15T11:36:20;8.30;;;1.93;;
4112;SDS011;2070;51.042;7.056;2023-03-15T11:38:46;4.70;;;2.00;;
4112;SDS011;2070;51.042;7.056;2023-03-15T11:41:15;6.80;;;2.27;;
4112;SDS011;2070;51.042;7.056;2023-03-15T11:43:56;4.70;;;1.63;;
4112;SDS011;2070;51.042;7.056;2023-03-15T11:46:25;2.83;;;1.80;;
4112;SDS011;2070;51.042;7.056;2023-03-15T11:48:54;7.87;;;1.90;;
4112;SDS011;2070;51.042;7.056;2023-03-15T11:51:21;5.00;;;2.10;;
4112;SDS011;2070;51.042;7.056;2023-03-15T11:53:48;7.77;;;1.80;;
4112;SDS011;2070;51.042;7.056;2023-03-15T11:56:19;7.47;;;2.03;;
4112;SDS011;2070;51.042;7.056;2023-03-15T11:58:45;7.83;;;2.27;;
4112;SDS011;2070;51.042;7.056;2023-03-15T12:01:28;10.73;;;2.20;;
4112;SDS011;2070;51.042;7.056;2023-03-15T12:04:25;6.00;;;1.83;;
4112;SDS011;2070;51.042;7.056;2023-03-15T12:06:38;4.67;;;1.90;;
4112;SDS011;2070;51.042;7.056;2023-03-15T12:09:37;3.40;;;1.60;;
4112;SDS011;2070;51.042;7.056;2023-03-15T12:11:48;6.93;;;2.40;;
4112;SDS011;2070;51.042;7.056;2023-03-15T12:14:22;6.70;;;1.50;;
4112;SDS011;2070;51.042;7.056;2023-03-15T12:16:49;12.33;;;2.23;;
4112;SDS011;2070;51.042;7.056;2023-03-15T12:19:15;5.87;;;1.20;;
4112;SDS011;2070;51.042;7.056;2023-03-15T12:21:51;1.60;;;1.50;;
4112;SDS011;2070;51.042;7.056;2023-03-15T12:24:27;2.20;;;1.40;;
4112;SDS011;2070;51.042;7.056;2023-03-15T12:26:58;7.40;;;1.70;;
4112;SDS011;2070;51.042;7.056;2023-03-15T12:29:28;4.57;;;1.83;;
4112;SDS011;2070;51.042;7.056;2023-03-15T12:36:58;2.73;;;2.10;;
4112;SDS011;2070;51.042;7.056;2023-03-15T12:39:35;5.90;;;1.87;;
4112;SDS011;2070;51.042;7.056;2023-03-15T12:42:01;2.63;;;1.37;;
4112;SDS011;2070;51.042;7.056;2023-03-15T12:46:53;4.97;;;2.08;;
4112;SDS011;2070;51.042;7.056;2023-03-15T12:54:17;14.40;;;2.47;;
4112;SDS011;2070;51.042;7.056;2023-03-15T12:56:46;4.97;;;1.80;;
4112;SDS011;2070;51.042;7.056;2023-03-15T12:59:19;8.27;;;2.93;;
4112;SDS011;2070;51.042;7.056;2023-03-15T13:01:46;7.27;;;2.20;;
4112;SDS011;2070;51.042;7.056;2023-03-15T13:04:12;8.23;;;2.43;;
4112;SDS011;2070;51.042;7.056;2023-03-15T13:12:09;3.20;;;1.47;;
4112;SDS011;2070;51.042;7.056;2023-03-15T13:14:55;6.83;;;1.60;;
4112;SDS011;2070;51.042;7.056;2023-03-15T13:19:55;5.53;;;2.40;;
4112;SDS011;2070;51.042;7.056;2023-03-15T13:22:41;2.20;;;1.73;;
4112;SDS011;2070;51.042;7.056;2023-03-15T13:33:52;3.07;;;1.10;;
4112;SDS011;2070;51.042;7.056;2023-03-15T13:35:46;2.70;;;1.50;;
4112;SDS011;2070;51.042;7.056;2023-03-15T13:38:20;1.63;;;1.30;;
4112;SDS011;2070;51.042;7.056;2023-03-15T13:40:46;5.53;;;1.60;;
4112;SDS011;2070;51.042;7.056;2023-03-15T13:43:12;9.13;;;2.00;;
4112;SDS011;2070;51.042;7.056;2023-03-15T13:45:39;4.60;;;1.03;;
4112;SDS011;2070;51.042;7.056;2023-03-15T13:48:05;7.27;;;1.63;;
4112;SDS011;2070;51.042;7.056;2023-03-15T13:50:31;5.53;;;1.50;;
4112;SDS011;2070;51.042;7.056;2023-03-15T13:52:56;4.77;;;1.60;;
4112;SDS011;2070;51.042;7.056;2023-03-15T13:55:22;8.53;;;1.87;;
4112;SDS011;2070;51.042;7.056;2023-03-15T13:57:49;3.87;;;1.20;;
4112;SDS011;2070;51.042;7.056;2023-03-15T14:00:18;4.90;;;1.73;;
4112;SDS011;2070;51.042;7.056;2023-03-15T14:02:53;4.40;;;2.40;;
4112;SDS011;2070;51.042;7.056;2023-03-15T14:05:24;3.87;;;1.07;;
4112;SDS011;2070;51.042;7.056;2023-03-15T14:08:34;1.53;;;1.07;;
4112;SDS011;2070;51.042;7.056;2023-03-15T14:10:39;1.77;;;0.93;;
4112;SDS011;2070;51.042;7.056;2023-03-15T14:15:49;11.50;;;1.27;;
4112;SDS011;2070;51.042;7.056;2023-03-15T14:18:16;4.37;;;1.77;;
4112;SDS011;2070;51.042;7.056;2023-03-15T14:20:43;2.03;;;1.37;;
4112;SDS011;2070;51.042;7.056;2023-03-15T14:23:10;11.63;;;2.60;;
4112;SDS011;2070;51.042;7.056;2023-03-15T14:25:36;7.03;;;1.97;;
4112;SDS011;2070;51.042;7.056;2023-03-15T14:28:01;4.97;;;1.37;;
4112;SDS011;2070;51.042;7.056;2023-03-15T14:30:27;5.03;;;2.23;;
4112;SDS011;2070;51.042;7.056;2023-03-15T14:32:54;4.70;;;1.23;;
4112;SDS011;2070;51.042;7.056;2023-03-15T14:42:53;4.63;;;1.83;;
4112;SDS011;2070;51.042;7.056;2023-03-15T14:45:18;2.60;;;1.43;;
4112;SDS011;2070;51.042;7.056;2023-03-15T14:47:50;2.90;;;1.17;;
4112;SDS011;2070;51.042;7.056;2023-03-15T14:50:16;6.10;;;1.17;;
4112;SDS011;2070;51.042;7.056;2023-03-15T14:52:42;3.40;;;1.27;;
4112;SDS011;2070;51.042;7.056;2023-03-15T14:55:10;3.13;;;0.97;;
4112;SDS011;2070;51.042;7.056;2023-03-15T14:57:35;4.10;;;1.10;;
4112;SDS011;2070;51.042;7.056;2023-03-15T15:00:00;5.40;;;1.97;;
4112;SDS011;2070;51.042;7.056;2023-03-15T15:02:26;4.30;;;1.53;;
4112;SDS011;2070;51.042;7.056;2023-03-15T15:04:51;4.03;;;1.63;;
4112;SDS011;2070;51.042;7.056;2023-03-15T15:07:16;1.93;;;1.57;;
4112;SDS011;2070;51.042;7.056;2023-03-15T15:09:47;2.77;;;1.70;;
4112;SDS011;2070;51.042;7.056;2023-03-15T15:12:13;8.50;;;2.00;;
4112;SDS011;2070;51.042;7.056;2023-03-15T15:14:39;3.90;;;1.00;;
4112;SDS011;2070;51.042;7.056;2023-03-15T15:17:06;11.30;;;1.50;;
4112;SDS011;2070;51.042;7.056;2023-03-15T15:19:31;9.00;;;2.73;;
4112;SDS011;2070;51.042;7.056;2023-03-15T15:21:57;7.33;;;1.37;;
4112;SDS011;2070;51.042;7.056;2023-03-15T15:24:22;3.37;;;1.20;;
4112;SDS011;2070;51.042;7.056;2023-03-15T15:26:49;6.97;;;1.27;;
4112;SDS011;2070;51.042;7.056;2023-03-15T15:29:15;1.63;;;1.40;;
4112;SDS011;2070;51.042;7.056;2023-03-15T15:31:40;5.17;;;1.80;;
4112;SDS011;2070;51.042;7.056;2023-03-15T15:34:05;6.60;;;1.83;;
4112;SDS011;2070;51.042;7.056;2023-03-15T15:36:35;3.53;;;0.90;;
4112;SDS011;2070;51.042;7.056;2023-03-15T15:39:00;4.77;;;1.57;;
4112;SDS011;2070;51.042;7.056;2023-03-15T15:41:28;9.53;;;1.50;;
4112;SDS011;2070;51.042;7.056;2023-03-15T15:43:55;3.33;;;1.23;;
4112;SDS011;2070;51.042;7.056;2023-03-15T15:46:20;3.13;;;1.00;;
4112;SDS011;2070;51.042;7.056;2023-03-15T15:48:47;1.70;;;1.37;;
4112;SDS011;2070;51.042;7.056;2023-03-15T15:53:41;5.00;;;1.67;;
4112;SDS011;2070;51.042;7.056;2023-03-15T15:56:07;5.53;;;1.10;;
4112;SDS011;2070;51.042;7.056;2023-03-15T15:58:35;9.27;;;1.07;;
4112;SDS011;2070;51.042;7.056;2023-03-15T16:01:01;6.70;;;1.67;;
4112;SDS011;2070;51.042;7.056;2023-03-15T16:03:26;0.90;;;0.80;;
4112;SDS011;2070;51.042;7.056;2023-03-15T16:05:51;7.23;;;1.20;;
4112;SDS011;2070;51.042;7.056;2023-03-15T16:08:20;3.53;;;1.70;;
4112;SDS011;2070;51.042;7.056;2023-03-15T16:10:45;2.43;;;1.17;;